Weather history for 0411

Weather History For Prescott AZ

This page updates 5 minutes after midnight. GMT -7

Station: KPRC0 Rows: 26

Return to today's weather
Year Date Temp (°F) Tmin (°F) Tmax (°F) RH% Prcp Snow Wind Gust Pres Sun Cloud
2000 2000-04-11 57.0 37.9 71.1 36 10.6 29.97 2
2001 2001-04-11 39.9 30.0 50.0 60 15.0 29.91 4
2002 2002-04-11 63.5 27 11.3 29.97 0
2003 2003-04-11 57.0 39.2 71.6 21 13.5 29.92 0
2004 2004-04-11 49.1 37.4 62.6 38 17.4 29.90 0
2005 2005-04-11 47.7 28.9 63.0 38 0.0 8.3 29.97 0
2006 2006-04-11 52.7 39.9 64.0 40 0.0 12.1 29.92 2
2007 2007-04-11 54.9 37.9 68.0 24 0.0 18.2 29.72 1
2008 2008-04-11 48.6 30.9 66.9 27 0.0 14.9 30.10 0
2009 2009-04-11 39.4 35.1 43.0 86 11.8 0.00 8
2010 2010-04-11 58.5 46.9 70.0 19 0.0 17.6 29.92 0
2011 2011-04-11 46.2 27.0 63.0 47 0.0 8.4 30.11 1
2012 2012-04-11 52.5 45.0 57.9 46 19.3 29.82 5
2013 2013-04-11 52.7 36.0 66.9 31 0.0 12.3 29.84 0
2014 2014-04-11 63.3 48.0 77.0 17 0.0 14.6 29.86 0
2015 2015-04-11 55.8 37.9 70.0 23 0.0 8.8 29.85 0
2016 2016-04-11 49.5 43.0 59.0 75 7.7 30.00
2017 2017-04-11 54.9 36.0 71.1 27 0.0 9.8 29.94 0
2018 2018-04-11 65.7 46.0 79.0 17 0.0 17.6 29.85
2019 2019-04-11 46.8 34.0 57.0 34 0.0 17.0 29.82 0
2020 2020-04-11 46.2 37.0 55.9 59 9.6 29.82
2021 2021-04-11 59.4 43.0 73.9 20 0.0 11.7 29.71 0
2022 2022-04-11 55.4 46.0 64.0 42 0.0 19.8 29.63 0
2023 2023-04-11 64.4 45.0 82.0 27 0.0 15.4 29.92 0
2024 2024-04-11 58.5 39.0 75.0 32 0.0 8.0 29.92 0
2025 2025-04-11 65.7 46.9 82.9 18 0.0 10.2 30.00 0
Average Low 39.0
Average High 66.6

Daily High / Low by Year (04/11)

Barometric Pressure by Year (04/11)

Weather data provided by Meteostat